Time;durP1;ratioP1;P1;durP2;ratioP2;P2;SDS_P1;SDS_P2;PMS_P1;PMS_P2;Temp;Humidity;BMP_temperature;BMP_pressure;BME280_temperature;BME280_humidity;BME280_pressure;Samples;Min_cycle;Max_cycle;Signal;HPM_P1;HPM_P2
2022/03/30 00:00:35;;;;;;;34.30;16.33;;;3.70;99.90;;;;;;5087556;28;20040;-84
2022/03/30 00:03:01;;;;;;;42.33;17.77;;;3.40;99.90;;;;;;5053073;28;20568;-83
2022/03/30 00:05:27;;;;;;;32.63;17.33;;;3.40;99.90;;;;;;5042776;28;20039;-83
2022/03/30 00:07:54;;;;;;;43.38;17.80;;;3.50;99.90;;;;;;5026278;28;20079;-83
2022/03/30 00:10:20;;;;;;;37.70;17.65;;;3.50;99.90;;;;;;5042341;28;20048;-84
2022/03/30 00:12:47;;;;;;;39.50;16.90;;;3.50;99.90;;;;;;5041141;28;20417;-83
2022/03/30 00:15:14;;;;;;;43.47;17.95;;;3.50;99.90;;;;;;5037243;28;20111;-84
2022/03/30 00:17:39;;;;;;;47.17;18.75;;;3.60;99.90;;;;;;5032266;28;20032;-84
2022/03/30 00:20:06;;;;;;;38.13;16.23;;;3.60;99.90;;;;;;5071182;28;20131;-84
2022/03/30 00:22:31;;;;;;;36.30;17.45;;;3.60;99.90;;;;;;5030613;28;20037;-84
2022/03/30 00:24:57;;;;;;;36.10;16.63;;;3.70;99.90;;;;;;5033986;28;20043;-84
2022/03/30 00:27:25;;;;;;;32.50;16.27;;;3.70;99.90;;;;;;5053645;28;20055;-84
2022/03/30 00:29:51;;;;;;;40.33;16.60;;;3.70;99.90;;;;;;5019151;28;20048;-84
2022/03/30 00:32:17;;;;;;;34.05;16.52;;;3.70;99.90;;;;;;5028955;28;20402;-84
2022/03/30 00:34:43;;;;;;;37.53;15.82;;;3.80;99.90;;;;;;5038817;28;20044;-84
2022/03/30 00:37:09;;;;;;;34.75;16.70;;;3.80;99.90;;;;;;5059041;28;20049;-83
2022/03/30 00:39:34;;;;;;;36.40;17.70;;;3.80;99.90;;;;;;5051557;28;20048;-84
2022/03/30 00:42:00;;;;;;;36.90;15.75;;;3.80;99.90;;;;;;5060684;28;20033;-85
2022/03/30 00:44:26;;;;;;;38.67;15.90;;;3.90;99.90;;;;;;5043397;28;20055;-84
2022/03/30 00:46:52;;;;;;;37.35;16.80;;;3.90;99.90;;;;;;5052932;28;20049;-84
2022/03/30 00:49:18;;;;;;;43.70;17.25;;;3.90;99.90;;;;;;5023336;28;20077;-85
2022/03/30 00:51:44;;;;;;;38.15;16.00;;;4.00;99.90;;;;;;5035802;28;20161;-84
2022/03/30 00:54:10;;;;;;;38.92;16.83;;;4.00;99.90;;;;;;5049930;28;20509;-85
2022/03/30 00:56:39;;;;;;;38.35;16.13;;;4.00;99.90;;;;;;5056898;28;20121;-85
2022/03/30 00:59:05;;;;;;;44.05;14.77;;;4.10;99.90;;;;;;5045598;28;20041;-85
2022/03/30 01:01:32;;;;;;;34.58;15.43;;;4.70;99.90;;;;;;5026714;28;20072;-84
2022/03/30 01:03:58;;;;;;;36.42;15.48;;;4.10;99.90;;;;;;5041836;28;20043;-84
2022/03/30 01:06:27;;;;;;;36.72;15.02;;;4.10;99.90;;;;;;5070389;28;20045;-84
2022/03/30 01:08:52;;;;;;;32.90;14.13;;;4.10;99.90;;;;;;5028877;28;20399;-84
2022/03/30 01:11:18;;;;;;;38.17;14.02;;;4.20;99.90;;;;;;5021148;28;20040;-84
2022/03/30 01:13:44;;;;;;;35.95;14.13;;;4.20;99.90;;;;;;5034462;28;20053;-84
2022/03/30 01:16:10;;;;;;;28.35;14.15;;;4.20;99.90;;;;;;5043854;28;20615;-84
2022/03/30 01:18:39;;;;;;;33.17;14.50;;;4.30;99.90;;;;;;5027389;28;20044;-84
2022/03/30 01:21:05;;;;;;;32.88;13.32;;;4.30;99.90;;;;;;5032099;28;20076;-84
2022/03/30 01:23:31;;;;;;;31.40;13.68;;;4.30;99.90;;;;;;5046438;28;20060;-84
2022/03/30 01:25:57;;;;;;;32.78;14.30;;;5.10;99.90;;;;;;5067188;28;20451;-83
2022/03/30 01:28:28;;;;;;;35.55;13.52;;;4.30;99.90;;;;;;5046031;28;20047;-84
2022/03/30 01:33:47;;;;;;;33.97;14.55;;;4.40;99.90;;;;;;5047442;28;20069;-84
2022/03/30 01:36:16;;;;;;;31.77;13.70;;;4.40;99.90;;;;;;5022755;28;20075;-84
2022/03/30 01:38:43;;;;;;;44.60;15.13;;;4.40;99.90;;;;;;5046678;28;20033;-84
2022/03/30 01:41:09;;;;;;;34.58;14.77;;;4.50;99.90;;;;;;5030508;28;20782;-85
2022/03/30 01:43:34;;;;;;;32.85;13.80;;;4.40;99.90;;;;;;5027148;28;20052;-84
2022/03/30 01:46:00;;;;;;;36.47;15.55;;;4.50;99.90;;;;;;5047552;28;20503;-84
2022/03/30 01:48:26;;;;;;;35.47;14.98;;;4.50;99.90;;;;;;5034999;28;20047;-85
2022/03/30 01:50:52;;;;;;;35.42;14.98;;;5.70;99.90;;;;;;5035931;28;20045;-84
2022/03/30 01:53:18;;;;;;;30.17;15.63;;;4.50;99.90;;;;;;5065493;28;20038;-84
2022/03/30 01:55:44;;;;;;;36.63;16.55;;;4.50;99.90;;;;;;5052805;28;20051;-85
2022/03/30 01:58:10;;;;;;;39.78;16.38;;;4.50;99.90;;;;;;5036314;28;20045;-85
2022/03/30 02:00:36;;;;;;;35.65;17.10;;;4.50;99.90;;;;;;5071507;28;20353;-85
2022/03/30 02:03:02;;;;;;;32.92;16.35;;;4.60;99.90;;;;;;5034106;28;20036;-85
2022/03/30 02:05:32;;;;;;;38.88;16.88;;;4.60;99.90;;;;;;5055895;28;20556;-86
2022/03/30 02:07:57;;;;;;;40.80;17.33;;;4.60;99.90;;;;;;5040477;28;20520;-85
2022/03/30 02:10:23;;;;;;;35.63;16.75;;;4.60;99.90;;;;;;5042299;28;20340;-86
2022/03/30 02:12:49;;;;;;;34.05;16.63;;;4.60;99.90;;;;;;5046901;28;20040;-86
2022/03/30 02:15:15;;;;;;;44.60;18.15;;;4.60;99.90;;;;;;5071441;28;20071;-86
2022/03/30 02:17:41;;;;;;;38.47;17.48;;;4.60;99.90;;;;;;5053500;28;20040;-86
2022/03/30 02:20:09;;;;;;;37.70;16.33;;;6.00;99.90;;;;;;5067969;28;20043;-86
2022/03/30 02:22:34;;;;;;;38.67;15.80;;;4.70;99.90;;;;;;5029107;28;20381;-86
2022/03/30 02:25:00;;;;;;;43.35;17.00;;;5.60;99.90;;;;;;5033691;28;20037;-86
2022/03/30 02:27:26;;;;;;;32.05;14.88;;;5.80;99.90;;;;;;5052558;28;20224;-86
2022/03/30 02:29:54;;;;;;;39.28;15.80;;;6.10;99.90;;;;;;5053756;28;20437;-86
2022/03/30 02:32:21;;;;;;;32.65;14.35;;;5.80;99.90;;;;;;5035189;28;20045;-86
2022/03/30 02:34:49;;;;;;;29.70;11.80;;;5.60;99.90;;;;;;5034196;28;20036;-87
2022/03/30 02:37:14;;;;;;;28.83;10.80;;;4.80;99.90;;;;;;5043572;28;20036;-86
2022/03/30 02:39:40;;;;;;;20.48;8.65;;;4.80;99.90;;;;;;5048041;28;20098;-86
2022/03/30 02:42:07;;;;;;;22.15;8.35;;;5.40;99.90;;;;;;5025402;28;20041;-86
2022/03/30 02:44:36;;;;;;;16.45;6.90;;;4.90;99.90;;;;;;5036302;28;20060;-85
2022/03/30 02:47:04;;;;;;;14.00;4.43;;;5.10;99.90;;;;;;5036579;28;20044;-86
2022/03/30 02:49:30;;;;;;;12.98;3.20;;;5.20;99.90;;;;;;5038333;28;20041;-86
2022/03/30 02:51:56;;;;;;;7.20;2.42;;;5.20;99.90;;;;;;5053350;28;20144;-86
2022/03/30 02:54:24;;;;;;;5.40;1.83;;;5.20;99.90;;;;;;5032662;28;20041;-87
2022/03/30 02:56:52;;;;;;;6.25;1.80;;;4.70;99.90;;;;;;5048377;28;20040;-87
2022/03/30 02:59:17;;;;;;;5.30;1.63;;;6.10;99.90;;;;;;5034220;28;20044;-85
2022/03/30 03:01:43;;;;;;;5.97;1.50;;;5.20;99.90;;;;;;5058518;28;20056;-86
2022/03/30 03:04:09;;;;;;;3.72;1.08;;;5.20;99.90;;;;;;5019822;28;20402;-82
2022/03/30 03:06:34;;;;;;;5.93;1.20;;;5.20;99.90;;;;;;5033751;28;20048;-85
2022/03/30 03:09:00;;;;;;;6.50;1.00;;;5.20;99.90;;;;;;5067214;28;20041;-85
2022/03/30 03:11:28;;;;;;;2.30;0.75;;;5.20;99.90;;;;;;5051774;28;20071;-86
2022/03/30 03:13:53;;;;;;;2.70;0.90;;;5.20;99.90;;;;;;5034234;28;20413;-86
2022/03/30 03:16:19;;;;;;;3.45;0.85;;;5.20;99.90;;;;;;5031751;28;20041;-87
2022/03/30 03:18:45;;;;;;;5.25;1.02;;;5.20;99.90;;;;;;5043691;28;20050;-86
2022/03/30 03:21:11;;;;;;;2.40;0.70;;;5.20;99.90;;;;;;5049533;28;20044;-85
2022/03/30 03:23:37;;;;;;;3.13;0.80;;;5.20;99.90;;;;;;5037372;28;20045;-85
2022/03/30 03:26:03;;;;;;;2.03;0.80;;;5.20;99.90;;;;;;5039032;28;20509;-86
2022/03/30 03:28:29;;;;;;;4.50;0.90;;;5.20;99.90;;;;;;5071796;28;20095;-86
2022/03/30 03:30:55;;;;;;;2.75;0.70;;;5.20;99.90;;;;;;5074418;28;20041;-86
2022/03/30 03:33:20;;;;;;;4.28;0.70;;;6.30;99.90;;;;;;5050217;28;20122;-86
2022/03/30 03:35:47;;;;;;;5.97;1.02;;;5.20;99.90;;;;;;5054923;28;20037;-87
2022/03/30 03:38:13;;;;;;;2.95;0.60;;;5.10;99.90;;;;;;5070246;28;20056;-86
2022/03/30 03:40:40;;;;;;;2.75;0.73;;;5.10;99.90;;;;;;5051297;28;20044;-87
2022/03/30 03:43:06;;;;;;;2.05;0.63;;;5.10;99.90;;;;;;5038233;28;20042;-85
2022/03/30 03:45:32;;;;;;;2.08;0.55;;;5.10;99.90;;;;;;5045263;28;20084;-85
2022/03/30 03:47:58;;;;;;;5.30;0.63;;;5.10;99.90;;;;;;5050816;28;20098;-86
2022/03/30 03:50:25;;;;;;;5.97;0.70;;;5.00;99.90;;;;;;5064170;28;20449;-86
2022/03/30 03:52:50;;;;;;;2.28;0.80;;;5.00;99.90;;;;;;5049432;28;20396;-85
2022/03/30 03:55:17;;;;;;;3.50;0.85;;;5.00;99.90;;;;;;5031696;28;20037;-85
2022/03/30 03:57:43;;;;;;;1.50;0.60;;;5.00;99.90;;;;;;5048294;28;20642;-85
2022/03/30 04:00:11;;;;;;;2.22;0.90;;;5.00;99.90;;;;;;5050844;28;20146;-85
2022/03/30 04:02:36;;;;;;;4.75;1.00;;;5.00;99.90;;;;;;5067465;28;20037;-84
2022/03/30 04:05:03;;;;;;;2.17;0.77;;;5.00;99.90;;;;;;5043997;28;20127;-85
2022/03/30 04:07:29;;;;;;;2.55;0.70;;;5.00;99.90;;;;;;5035146;28;20059;-86
2022/03/30 04:09:54;;;;;;;4.00;0.70;;;5.00;99.90;;;;;;5051223;28;20041;-85
2022/03/30 04:12:20;;;;;;;2.80;0.70;;;5.70;99.90;;;;;;5047846;28;20072;-85
2022/03/30 04:14:47;;;;;;;2.58;0.70;;;6.20;99.90;;;;;;5068461;28;20119;-84
2022/03/30 04:17:13;;;;;;;4.25;0.68;;;5.00;99.90;;;;;;5036776;28;20126;-85
2022/03/30 04:19:39;;;;;;;1.08;0.40;;;5.60;99.90;;;;;;5056252;28;20501;-85
2022/03/30 04:22:04;;;;;;;5.40;0.73;;;4.90;99.90;;;;;;5063183;28;20086;-84
2022/03/30 04:24:30;;;;;;;2.72;0.50;;;4.90;99.90;;;;;;5032657;28;20049;-84
2022/03/30 04:26:56;;;;;;;1.95;0.70;;;4.90;99.90;;;;;;5032351;28;20040;-84
2022/03/30 04:29:21;;;;;;;5.20;0.70;;;4.90;99.90;;;;;;5050360;28;20097;-84
2022/03/30 04:31:47;;;;;;;1.95;0.70;;;4.90;99.90;;;;;;5052473;28;20120;-84
2022/03/30 04:34:13;;;;;;;2.80;0.60;;;4.80;99.90;;;;;;5033777;28;20048;-85
2022/03/30 04:36:39;;;;;;;1.42;0.55;;;4.80;99.90;;;;;;5052713;28;20049;-84
2022/03/30 04:39:04;;;;;;;2.25;0.68;;;4.80;99.90;;;;;;5048596;28;20043;-85
2022/03/30 04:41:30;;;;;;;2.72;0.80;;;4.80;99.90;;;;;;5053406;28;20041;-85
2022/03/30 04:43:56;;;;;;;5.07;1.00;;;4.70;99.90;;;;;;5063486;28;20040;-85
2022/03/30 04:46:21;;;;;;;2.72;0.70;;;4.70;99.90;;;;;;5035817;28;20477;-84
2022/03/30 04:48:47;;;;;;;2.92;0.80;;;4.70;99.90;;;;;;5060361;28;20051;-83
2022/03/30 04:51:13;;;;;;;2.55;0.80;;;4.60;99.90;;;;;;5029276;28;20051;-84
2022/03/30 04:53:38;;;;;;;2.90;0.98;;;4.60;99.90;;;;;;5042994;28;20099;-85
2022/03/30 04:56:06;;;;;;;2.97;0.95;;;4.50;99.90;;;;;;5022421;28;20573;-85
2022/03/30 04:58:32;;;;;;;4.25;0.90;;;4.50;99.90;;;;;;5032663;28;20444;-85
2022/03/30 05:00:57;;;;;;;2.83;1.02;;;4.50;99.90;;;;;;5067264;28;20109;-85
2022/03/30 05:03:23;;;;;;;3.08;0.77;;;4.50;99.90;;;;;;5057024;28;20555;-85
2022/03/30 05:05:49;;;;;;;3.50;0.93;;;5.60;99.90;;;;;;5030563;28;20421;-84
2022/03/30 05:08:15;;;;;;;2.03;0.75;;;4.40;99.90;;;;;;5049286;28;20551;-85
2022/03/30 05:10:41;;;;;;;3.05;1.05;;;4.40;99.90;;;;;;5036445;28;20485;-84
2022/03/30 05:13:07;;;;;;;4.05;1.30;;;4.30;99.90;;;;;;5031187;28;20052;-83
2022/03/30 05:15:32;;;;;;;4.65;1.13;;;4.40;99.90;;;;;;5033411;28;20409;-83
2022/03/30 05:18:00;;;;;;;4.80;1.10;;;4.40;99.90;;;;;;5051102;28;20075;-84
2022/03/30 05:20:26;;;;;;;5.00;1.35;;;4.40;99.90;;;;;;5032072;28;20079;-84
2022/03/30 05:22:53;;;;;;;5.78;1.80;;;4.30;99.90;;;;;;5040749;28;20527;-83
2022/03/30 05:25:22;;;;;;;5.30;1.45;;;4.30;99.90;;;;;;5069385;28;20595;-83
2022/03/30 05:27:47;;;;;;;5.90;1.30;;;4.40;99.90;;;;;;5034416;28;20049;-84
2022/03/30 05:30:14;;;;;;;4.43;1.40;;;4.30;99.90;;;;;;5051999;28;20048;-84
2022/03/30 05:32:44;;;;;;;5.13;1.30;;;4.30;99.90;;;;;;5036828;28;20056;-84
2022/03/30 05:35:11;;;;;;;5.90;1.60;;;4.30;99.90;;;;;;5039899;28;20036;-84
2022/03/30 05:37:36;;;;;;;4.90;1.10;;;4.30;99.90;;;;;;5038505;28;20060;-84
2022/03/30 05:40:04;;;;;;;5.82;1.17;;;4.20;99.90;;;;;;5007436;28;20478;-84
2022/03/30 05:42:30;;;;;;;3.00;1.10;;;4.20;99.90;;;;;;5038422;28;20045;-84
2022/03/30 05:44:55;;;;;;;4.03;1.15;;;4.20;99.90;;;;;;5023514;28;20055;-83
2022/03/30 05:47:21;;;;;;;4.32;1.38;;;4.20;99.90;;;;;;5028777;28;20050;-84
2022/03/30 05:49:47;;;;;;;4.30;1.48;;;4.20;99.90;;;;;;5041291;28;20041;-83
2022/03/30 05:52:13;;;;;;;4.38;1.25;;;4.80;99.90;;;;;;5017127;28;20045;-83
2022/03/30 05:54:39;;;;;;;4.57;1.50;;;4.20;99.90;;;;;;5007191;28;20332;-84
2022/03/30 05:57:05;;;;;;;2.78;1.13;;;4.20;99.90;;;;;;4999835;28;20048;-84
2022/03/30 05:59:37;;;;;;;4.82;1.27;;;4.20;99.90;;;;;;5023802;28;20099;-84
2022/03/30 06:02:05;;;;;;;5.72;1.33;;;5.10;99.90;;;;;;5025096;28;20051;-84
2022/03/30 06:04:31;;;;;;;7.70;1.65;;;4.20;99.90;;;;;;5033277;28;20312;-83
2022/03/30 06:06:57;;;;;;;6.38;1.58;;;4.30;99.90;;;;;;5047983;28;20037;-84
2022/03/30 06:09:26;;;;;;;4.43;1.40;;;4.30;99.90;;;;;;5036157;28;20036;-84
2022/03/30 06:11:52;;;;;;;5.50;1.35;;;4.30;99.90;;;;;;5037258;28;20048;-84
2022/03/30 06:14:18;;;;;;;7.50;1.33;;;4.40;99.90;;;;;;5037281;28;20122;-83
2022/03/30 06:16:45;;;;;;;5.47;2.35;;;4.50;99.90;;;;;;5031408;28;20044;-84
2022/03/30 06:19:11;;;;;;;7.43;1.60;;;4.60;99.90;;;;;;5035487;28;20045;-83
2022/03/30 06:21:38;;;;;;;6.00;1.40;;;4.60;99.90;;;;;;5040612;28;20044;-83
2022/03/30 06:24:04;;;;;;;4.13;1.38;;;4.70;99.90;;;;;;5050242;28;20050;-84
2022/03/30 06:26:30;;;;;;;6.63;2.25;;;4.80;99.90;;;;;;5058940;28;20048;-84
2022/03/30 06:28:56;;;;;;;5.82;1.33;;;4.80;99.90;;;;;;5040671;28;20121;-85
2022/03/30 06:31:22;;;;;;;4.32;1.40;;;4.90;99.90;;;;;;5023522;28;20135;-85
2022/03/30 06:33:49;;;;;;;9.18;1.73;;;5.00;99.90;;;;;;5039327;28;20460;-85
2022/03/30 06:36:16;;;;;;;5.55;1.52;;;6.00;99.90;;;;;;5039958;28;20562;-86
2022/03/30 06:38:42;;;;;;;9.18;2.13;;;5.40;99.90;;;;;;5021267;28;20029;-85
2022/03/30 06:41:09;;;;;;;5.80;1.70;;;6.80;99.90;;;;;;5021215;28;20045;-85
2022/03/30 06:43:42;;;;;;;9.07;1.85;;;6.10;99.90;;;;;;5017844;28;20041;-85
2022/03/30 06:46:10;;;;;;;6.38;1.80;;;6.30;99.90;;;;;;5039530;28;20056;-84
2022/03/30 06:48:36;;;;;;;7.57;2.08;;;6.50;99.90;;;;;;5035494;28;20044;-85
2022/03/30 06:51:02;;;;;;;5.43;1.63;;;7.00;99.90;;;;;;5020540;28;20406;-84
2022/03/30 06:53:29;;;;;;;5.60;1.58;;;6.50;99.90;;;;;;5059651;28;20044;-84
2022/03/30 06:55:55;;;;;;;5.88;1.60;;;6.50;99.90;;;;;;5037897;28;20044;-85
2022/03/30 06:58:22;;;;;;;4.55;1.70;;;6.40;99.90;;;;;;5038270;28;20406;-85
2022/03/30 07:00:48;;;;;;;5.90;1.80;;;6.40;99.90;;;;;;5039367;28;20064;-84
2022/03/30 07:03:14;;;;;;;6.15;1.80;;;6.30;99.90;;;;;;5012840;28;20036;-85
2022/03/30 07:05:39;;;;;;;8.88;1.80;;;6.30;99.90;;;;;;5023699;28;20044;-84
2022/03/30 07:10:50;;;;;;;6.85;1.90;;;6.40;99.90;;;;;;5041781;28;20124;-83
2022/03/30 07:13:19;;;;;;;5.38;1.63;;;6.40;99.90;;;;;;5039357;28;20047;-84
2022/03/30 07:15:45;;;;;;;6.80;1.85;;;6.70;99.90;;;;;;5012195;28;20047;-84
2022/03/30 07:18:13;;;;;;;5.18;1.52;;;7.00;99.90;;;;;;5039688;28;20421;-84
2022/03/30 07:20:39;;;;;;;5.70;1.70;;;7.30;99.90;;;;;;5025817;28;20393;-84
2022/03/30 07:23:05;;;;;;;5.88;1.70;;;7.50;99.90;;;;;;5037406;28;20123;-85
2022/03/30 07:25:31;;;;;;;8.18;1.70;;;7.80;99.90;;;;;;5062928;28;20084;-85
2022/03/30 07:27:59;;;;;;;8.35;1.80;;;7.80;99.90;;;;;;5024395;28;20043;-84
2022/03/30 07:30:25;;;;;;;9.23;1.95;;;7.40;99.90;;;;;;5041059;28;20406;-84
2022/03/30 07:32:52;;;;;;;6.93;1.90;;;7.20;99.90;;;;;;5018245;28;20033;-84
2022/03/30 07:35:22;;;;;;;8.27;2.00;;;6.90;99.90;;;;;;5037589;28;20045;-84
2022/03/30 07:37:48;;;;;;;12.30;1.65;;;6.70;99.90;;;;;;5039640;28;20389;-84
2022/03/30 07:40:17;;;;;;;7.88;1.52;;;6.70;99.90;;;;;;5025352;28;20041;-84
2022/03/30 07:42:43;;;;;;;8.98;1.80;;;6.60;99.90;;;;;;5041384;28;20079;-85
2022/03/30 07:45:10;;;;;;;9.20;1.67;;;6.50;99.90;;;;;;5040085;28;20049;-85
2022/03/30 07:47:36;;;;;;;8.30;1.38;;;6.50;99.90;;;;;;5075875;28;20044;-85
2022/03/30 07:50:04;;;;;;;8.75;1.83;;;6.50;99.90;;;;;;5041785;28;20044;-86
2022/03/30 07:52:29;;;;;;;4.53;1.27;;;6.50;99.90;;;;;;5056593;28;20041;-84
2022/03/30 07:54:55;;;;;;;4.68;1.27;;;6.50;99.90;;;;;;5027833;28;20044;-85
2022/03/30 07:57:26;;;;;;;5.28;1.40;;;6.70;99.90;;;;;;5063756;28;20125;-85
2022/03/30 07:59:56;;;;;;;6.55;1.30;;;6.50;99.90;;;;;;5029803;28;20445;-85
2022/03/30 08:02:27;;;;;;;5.68;1.52;;;6.40;99.90;;;;;;5054155;28;20044;-85
2022/03/30 08:04:54;;;;;;;5.85;1.33;;;6.30;99.90;;;;;;5043277;28;20050;-84
2022/03/30 08:07:21;;;;;;;6.07;1.13;;;6.30;99.90;;;;;;5053446;28;20044;-85
2022/03/30 08:09:47;;;;;;;5.95;1.30;;;7.20;99.90;;;;;;5065846;28;20049;-85
2022/03/30 08:12:14;;;;;;;8.23;1.33;;;6.20;99.90;;;;;;5048816;28;20055;-84
2022/03/30 08:14:41;;;;;;;7.03;1.95;;;6.20;99.90;;;;;;5061880;28;20040;-84
2022/03/30 08:17:07;;;;;;;12.07;1.50;;;6.20;99.90;;;;;;5046606;28;20460;-85
2022/03/30 08:19:32;;;;;;;7.07;1.27;;;6.10;99.90;;;;;;5063688;28;20047;-85
2022/03/30 08:24:46;;;;;;;9.70;1.10;;;6.10;99.90;;;;;;5086546;28;20065;-83
2022/03/30 08:27:17;;;;;;;7.10;1.00;;;6.10;99.90;;;;;;5066922;28;20044;-83
2022/03/30 08:29:46;;;;;;;7.80;1.20;;;6.20;99.90;;;;;;5049321;28;20036;-83
2022/03/30 08:32:16;;;;;;;8.65;1.02;;;6.30;99.90;;;;;;5046599;28;20048;-83
2022/03/30 08:34:43;;;;;;;6.50;1.10;;;6.40;99.90;;;;;;5061726;28;20072;-83
2022/03/30 08:37:10;;;;;;;6.90;1.10;;;6.60;99.90;;;;;;5062846;28;20528;-83
2022/03/30 08:39:36;;;;;;;6.55;1.30;;;6.60;99.90;;;;;;5083055;28;20111;-83
2022/03/30 08:42:04;;;;;;;6.40;1.10;;;6.60;99.90;;;;;;5047702;28;20588;-82
2022/03/30 08:44:31;;;;;;;5.13;0.90;;;6.60;99.90;;;;;;5046857;28;20108;-82
2022/03/30 08:46:57;;;;;;;6.75;1.42;;;6.60;99.90;;;;;;5030587;28;20050;-83
2022/03/30 08:49:23;;;;;;;3.75;0.98;;;6.60;99.90;;;;;;5023271;28;20533;-82
2022/03/30 08:51:50;;;;;;;6.57;0.88;;;7.50;99.90;;;;;;5040538;28;20075;-82
2022/03/30 08:54:17;;;;;;;8.20;0.95;;;6.70;99.90;;;;;;5061594;28;20049;-83
2022/03/30 08:56:44;;;;;;;4.80;0.77;;;6.70;99.90;;;;;;5041212;28;20040;-82
2022/03/30 08:59:12;;;;;;;6.90;0.82;;;6.80;99.90;;;;;;5035117;28;20069;-83
2022/03/30 09:01:40;;;;;;;5.20;0.73;;;6.90;99.90;;;;;;5056984;28;20131;-83
2022/03/30 09:04:10;;;;;;;7.20;0.95;;;7.00;99.90;;;;;;5047170;28;20443;-83
2022/03/30 09:06:38;;;;;;;6.10;0.85;;;7.00;99.90;;;;;;5068436;28;20586;-83
2022/03/30 09:09:06;;;;;;;5.43;0.93;;;7.10;99.90;;;;;;5035195;28;20044;-83
2022/03/30 09:11:41;;;;;;;7.70;0.90;;;7.10;99.90;;;;;;5042604;28;20093;-84
2022/03/30 09:14:09;;;;;;;6.05;1.05;;;7.10;99.90;;;;;;5052634;28;20040;-82
2022/03/30 09:16:54;;;;;;;7.50;0.98;;;7.20;99.90;;;;;;5069299;28;20021;-83
2022/03/30 09:19:23;;;;;;;2.55;0.65;;;7.10;99.90;;;;;;5082571;28;20670;-82
2022/03/30 09:21:51;;;;;;;5.70;0.77;;;7.20;99.90;;;;;;5030229;28;20049;-83
2022/03/30 09:24:23;;;;;;;5.45;0.70;;;7.20;99.90;;;;;;5039686;28;20048;-83
2022/03/30 09:26:50;;;;;;;5.47;0.90;;;7.10;99.90;;;;;;5060597;28;20261;-83
2022/03/30 09:29:19;;;;;;;6.93;0.90;;;7.10;99.90;;;;;;5024812;28;20398;-83
2022/03/30 09:31:47;;;;;;;4.55;0.90;;;7.20;99.90;;;;;;5042112;28;20409;-83
2022/03/30 09:34:13;;;;;;;6.45;0.82;;;7.20;99.90;;;;;;5013692;28;20528;-83
2022/03/30 09:36:40;;;;;;;5.43;0.60;;;7.30;99.90;;;;;;5040666;28;20080;-82
2022/03/30 09:39:09;;;;;;;5.80;1.67;;;7.30;99.90;;;;;;5042387;28;21582;-82
2022/03/30 09:41:46;;;;;;;5.20;1.00;;;7.00;99.90;;;;;;5024771;28;20036;-82
2022/03/30 09:44:12;;;;;;;5.30;0.85;;;7.40;99.90;;;;;;5029379;28;20120;-83
2022/03/30 09:46:59;;;;;;;4.40;0.70;;;7.50;99.90;;;;;;5058094;28;20135;-81
2022/03/30 09:49:52;;;;;;;4.25;0.65;;;7.50;99.90;;;;;;5052541;28;20036;-82
2022/03/30 09:52:23;;;;;;;3.30;0.70;;;7.50;99.90;;;;;;5075886;28;20051;-82
2022/03/30 09:54:54;;;;;;;3.45;0.68;;;7.70;99.90;;;;;;5049376;28;20080;-85
2022/03/30 09:57:24;;;;;;;7.40;0.90;;;7.80;99.90;;;;;;5066013;28;20033;-82
2022/03/30 10:00:02;;;;;;;2.05;0.60;;;8.00;99.90;;;;;;5057983;28;20048;-82
2022/03/30 10:02:32;;;;;;;2.47;0.70;;;8.00;99.90;;;;;;5065581;28;20056;-83
2022/03/30 10:04:59;;;;;;;2.90;0.70;;;8.00;99.90;;;;;;5039196;28;20516;-84
2022/03/30 10:07:26;;;;;;;4.72;0.70;;;7.90;99.90;;;;;;5051554;28;20044;-83
2022/03/30 10:09:52;;;;;;;8.23;0.80;;;7.90;99.90;;;;;;5075020;28;20401;-83
2022/03/30 10:12:19;;;;;;;6.22;0.80;;;8.00;99.90;;;;;;5047380;28;20045;-83
2022/03/30 10:14:47;;;;;;;6.18;0.73;;;8.00;99.90;;;;;;5029872;28;20084;-83
2022/03/30 10:17:14;;;;;;;2.88;0.57;;;7.90;99.90;;;;;;5048245;28;20044;-83
2022/03/30 10:19:44;;;;;;;4.13;1.05;;;7.80;99.90;;;;;;5050513;28;20047;-82
2022/03/30 10:22:39;;;;;;;6.45;0.90;;;7.80;99.90;;;;;;5050855;28;20071;-83
2022/03/30 10:25:44;;;;;;;4.90;1.50;;;7.80;99.90;;;;;;5029231;28;20147;-83
2022/03/30 10:28:29;;;;;;;4.78;0.95;;;7.80;99.90;;;;;;4993555;28;20048;-83
2022/03/30 10:31:00;;;;;;;5.93;1.00;;;7.70;99.90;;;;;;5052903;28;20051;-82
2022/03/30 10:33:41;;;;;;;3.47;0.90;;;7.80;99.90;;;;;;5036613;28;20098;-83
2022/03/30 10:36:23;;;;;;;4.57;0.70;;;7.80;99.90;;;;;;5049286;28;20044;-82
2022/03/30 10:39:15;;;;;;;2.20;0.73;;;7.80;99.90;;;;;;5030525;28;20109;-83
2022/03/30 10:41:56;;;;;;;8.27;1.05;;;7.90;99.90;;;;;;5059488;28;20044;-82
2022/03/30 10:44:45;;;;;;;6.40;0.70;;;8.00;99.90;;;;;;5024753;28;20050;-82
2022/03/30 10:47:16;;;;;;;3.38;0.70;;;8.20;99.90;;;;;;5068407;28;20047;-82
2022/03/30 10:49:54;;;;;;;;;;;8.30;99.90;;;;;;5045513;28;20275;-82
2022/03/30 10:52:47;;;;;;;5.45;0.93;;;8.30;99.90;;;;;;5042397;28;19927;-82
2022/03/30 10:55:13;;;;;;;2.85;0.70;;;8.20;99.90;;;;;;5042995;28;20076;-82
2022/03/30 10:58:02;;;;;;;7.55;1.00;;;8.10;99.90;;;;;;5048624;28;20083;-82
2022/03/30 11:00:38;;;;;;;10.15;1.35;;;8.10;99.90;;;;;;5050312;28;20056;-83
2022/03/30 11:03:11;;;;;;;8.52;2.08;;;8.00;99.90;;;;;;5022370;28;20084;-82
2022/03/30 11:05:37;;;;;;;6.40;1.02;;;7.90;99.90;;;;;;5036904;28;20770;-82
2022/03/30 11:08:32;;;;;;;6.93;1.00;;;7.60;99.90;;;;;;5036971;28;20119;-82
2022/03/30 11:11:01;;;;;;;9.10;1.10;;;7.40;99.90;;;;;;5037876;28;20830;-81
2022/03/30 11:13:28;;;;;;;6.38;1.17;;;7.30;99.90;;;;;;5038009;28;20060;-82
2022/03/30 11:16:06;;;;;;;8.38;1.17;;;7.20;99.90;;;;;;5059255;28;20048;-83
2022/03/30 11:18:32;;;;;;;8.93;1.67;;;7.00;99.90;;;;;;5042252;28;20058;-81
2022/03/30 11:21:15;;;;;;;7.88;0.90;;;7.00;99.90;;;;;;5023367;28;20952;-82
2022/03/30 11:24:02;;;;;;;7.25;1.13;;;7.00;99.90;;;;;;5035453;28;20448;-82
2022/03/30 11:26:47;;;;;;;4.95;1.10;;;7.10;99.90;;;;;;5022033;28;20207;-82
2022/03/30 11:29:41;;;;;;;8.15;0.98;;;7.20;99.90;;;;;;5073349;28;20449;-82
2022/03/30 11:32:39;;;;;;;4.03;0.68;;;7.20;99.90;;;;;;5056818;28;20302;-81
2022/03/30 11:35:09;;;;;;;4.25;0.93;;;7.30;99.90;;;;;;5026678;28;20048;-83
2022/03/30 11:37:39;;;;;;;4.38;0.90;;;7.40;99.90;;;;;;5057264;28;20398;-81
2022/03/30 11:40:14;;;;;;;6.68;0.90;;;8.20;99.90;;;;;;5046953;28;20108;-81
2022/03/30 11:42:57;;;;;;;4.90;1.02;;;7.80;99.90;;;;;;5049552;28;21660;-82
2022/03/30 11:45:26;;;;;;;4.65;0.85;;;7.90;99.90;;;;;;5072726;28;20121;-82
2022/03/30 11:48:02;;;;;;;4.65;0.88;;;8.10;99.90;;;;;;5077220;28;20087;-82
2022/03/30 11:50:38;;;;;;;6.25;1.08;;;8.20;99.90;;;;;;5071900;28;20049;-83
2022/03/30 11:53:09;;;;;;;4.60;0.68;;;8.30;99.90;;;;;;5077693;28;20497;-81
2022/03/30 11:55:51;;;;;;;;;;;8.40;99.90;;;;;;5060520;28;20040;-82
2022/03/30 11:58:49;;;;;;;3.38;0.60;;;8.60;99.90;;;;;;5074136;28;19970;-84
2022/03/30 12:01:16;;;;;;;4.22;0.70;;;8.80;99.90;;;;;;5048458;28;20074;-85
2022/03/30 12:03:43;;;;;;;5.68;0.77;;;8.70;99.90;;;;;;5026661;28;20032;-85
2022/03/30 12:06:10;;;;;;;6.10;0.90;;;8.60;99.90;;;;;;5029140;28;20072;-83
2022/03/30 12:08:41;;;;;;;6.22;0.70;;;8.40;99.90;;;;;;5070178;28;20036;-84
2022/03/30 12:11:07;;;;;;;4.18;0.70;;;8.30;99.90;;;;;;5050915;28;20044;-84
2022/03/30 12:13:33;;;;;;;4.85;0.70;;;8.20;99.90;;;;;;5024780;28;20098;-84
2022/03/30 12:16:10;;;;;;;3.65;0.55;;;8.20;99.90;;;;;;5052886;28;20501;-85
2022/03/30 12:18:43;;;;;;;7.78;0.98;;;8.30;99.90;;;;;;5060600;28;20150;-84
2022/03/30 12:21:09;;;;;;;5.57;0.90;;;8.40;99.90;;;;;;5049253;28;20037;-84
2022/03/30 12:23:34;;;;;;;5.90;0.90;;;8.60;99.90;;;;;;5068507;28;20116;-84
2022/03/30 12:26:12;;;;;;;5.40;1.17;;;8.80;99.90;;;;;;5043410;28;20050;-85
2022/03/30 12:28:38;;;;;;;4.13;1.10;;;8.90;99.90;;;;;;5054201;28;20230;-84
2022/03/30 12:31:05;;;;;;;6.10;0.95;;;9.30;99.90;;;;;;5055236;28;20080;-83
2022/03/30 12:33:30;;;;;;;4.97;1.20;;;8.90;99.90;;;;;;5043916;28;20048;-83
2022/03/30 12:35:56;;;;;;;7.47;0.82;;;8.80;99.90;;;;;;5061398;28;20048;-84
2022/03/30 12:38:24;;;;;;;5.38;0.98;;;8.80;99.90;;;;;;5067880;28;20040;-85
2022/03/30 12:40:53;;;;;;;5.63;0.80;;;8.70;99.90;;;;;;5042586;28;20451;-85
2022/03/30 12:43:25;;;;;;;4.00;1.05;;;9.40;99.90;;;;;;5044312;28;20408;-84
2022/03/30 12:45:54;;;;;;;;;;;8.30;99.90;;;;;;5085094;28;20063;-84
2022/03/30 12:48:28;;;;;;;3.63;0.77;;;8.20;99.90;;;;;;5048246;28;19928;-86
2022/03/30 12:50:54;;;;;;;4.63;0.80;;;8.80;99.90;;;;;;5046345;28;20040;-83
2022/03/30 12:53:28;;;;;;;9.73;1.05;;;8.20;99.90;;;;;;5035926;28;20052;-84
2022/03/30 12:55:54;;;;;;;5.25;1.10;;;8.20;99.90;;;;;;5053041;28;20048;-83
2022/03/30 12:58:23;;;;;;;5.93;1.17;;;8.30;99.90;;;;;;5045727;28;20044;-85
2022/03/30 13:00:53;;;;;;;7.38;1.10;;;8.20;99.90;;;;;;5063620;28;20483;-88
2022/03/30 13:03:28;;;;;;;5.90;0.80;;;8.20;99.90;;;;;;5059701;28;20400;-86
2022/03/30 13:06:19;;;;;;;4.03;0.75;;;8.20;99.90;;;;;;5051643;28;20043;-83
2022/03/30 13:09:07;;;;;;;5.57;0.90;;;8.30;99.90;;;;;;5046106;28;20140;-83